Salisbury, Massachusetts
Current Conditions -  °F | °C
As of 4:54 PM on Friday 28 Nov 2014 (Local Time) from KLWM Reporting Station
Clear Clear  
Wind Chill: 21°   Ceiling: Unl
Heat Index: 29°   Visibility: 10mi
Dew Point: 16°   Wind: 8mph
Humidity: 58%   Direction: 290°WNW
Pressure: 30.13"   Gusts: NA
Location:  42.83°N, 70.84°W
Report Text: KLWM 282154Z 29007KT 10SM CLR M02/M09 A3013 RMK AO2 SLP204 T10171089
Loading
Personal Weather Stations






























Interactive Weather Map New forecast layout! Learn more

10-Day Weather Forecast

Advertisements
Track Severe Weather on mobile